Time;durP1;ratioP1;P1;durP2;ratioP2;P2;SDS_P1;SDS_P2;PMS_P1;PMS_P2;Temp;Humidity;BMP_temperature;BMP_pressure;BME280_temperature;BME280_humidity;BME280_pressure;Samples;Min_cycle;Max_cycle;Signal;HPM_P1;HPM_P2
2022/01/27 00:04:51;;;;;;;;;;;12.20;96.00;;;;;;5030052;28;19925;-61
2022/01/27 00:07:17;;;;;;;;;;;12.10;96.00;;;;;;5032444;28;20306;-61
2022/01/27 00:09:49;;;;;;;;;;;12.10;96.00;;;;;;5032471;28;20004;-60
2022/01/27 00:12:18;;;;;;;;;;;12.30;96.10;;;;;;5032324;28;20375;-61
2022/01/27 00:14:46;;;;;;;;;;;12.40;96.10;;;;;;5030603;28;19948;-61
2022/01/27 00:17:14;;;;;;;;;;;12.20;96.00;;;;;;5067102;28;19973;-60
2022/01/27 00:19:41;;;;;;;;;;;12.10;96.00;;;;;;5094477;28;19924;-60
2022/01/27 00:22:06;;;;;;;;;;;12.10;96.00;;;;;;5107508;28;19924;-62
2022/01/27 00:24:32;;;;;;;;;;;12.10;95.90;;;;;;5114547;28;20400;-61
2022/01/27 00:26:59;;;;;;;;;;;12.10;96.00;;;;;;5115245;28;20003;-60
2022/01/27 00:29:25;;;;;;;;;;;12.20;96.00;;;;;;5114667;28;20018;-60
2022/01/27 00:31:50;;;;;;;;;;;12.10;95.90;;;;;;5113970;28;19992;-60
2022/01/27 00:34:16;;;;;;;;;;;12.20;96.00;;;;;;5114888;28;19970;-60
2022/01/27 00:36:42;;;;;;;;;;;12.10;96.00;;;;;;5114451;28;19946;-63
2022/01/27 00:39:07;;;;;;;;;;;11.90;95.90;;;;;;5114352;28;19924;-61
2022/01/27 00:41:33;;;;;;;;;;;12.10;96.00;;;;;;5115120;28;20018;-61
2022/01/27 00:43:58;;;;;;;;;;;12.00;95.90;;;;;;5114202;28;19968;-61
2022/01/27 00:46:24;;;;;;;;;;;11.80;95.90;;;;;;5114210;28;19932;-60
2022/01/27 00:48:50;;;;;;;;;;;12.10;95.90;;;;;;5114693;28;20014;-60
2022/01/27 00:51:20;;;;;;;;;;;12.00;95.90;;;;;;5114676;28;19924;-59
2022/01/27 00:54:09;;;;;;;;;;;12.10;95.90;;;;;;5114211;28;20384;-63
2022/01/27 00:56:51;;;;;;;;;;;11.90;95.90;;;;;;5114348;28;19928;-61
2022/01/27 01:02:37;;;;;;;;;;;12.10;96.00;;;;;;5031696;28;20338;-63
2022/01/27 01:07:38;;;;;;;;;;;11.90;95.90;;;;;;5031673;28;19972;-61
2022/01/27 01:15:13;;;;;;;;;;;12.10;95.90;;;;;;5030962;28;19929;-62
2022/01/27 01:17:57;;;;;;;;;;;12.10;95.90;;;;;;5031533;28;20347;-63
2022/01/27 01:34:21;;;;;;;;;;;12.10;95.90;;;;;;5031502;28;19925;-63
2022/01/27 01:36:54;;;;;;;;;;;12.30;95.90;;;;;;5028158;28;20001;-63
2022/01/27 01:39:20;;;;;;;;;;;12.00;95.90;;;;;;5075928;28;19935;-61
2022/01/27 01:41:45;;;;;;;;;;;12.20;95.90;;;;;;5091399;28;19928;-61
2022/01/27 01:44:11;;;;;;;;;;;11.90;95.80;;;;;;5091314;28;19947;-63
2022/01/27 01:46:37;;;;;;;;;;;12.20;95.90;;;;;;5089866;28;19924;-61
2022/01/27 01:49:03;;;;;;;;;;;12.20;95.90;;;;;;5091426;28;20378;-60
2022/01/27 01:51:29;;;;;;;;;;;12.00;95.90;;;;;;5054118;28;19995;-60
2022/01/27 01:53:55;;;;;;;;;;;12.00;95.90;;;;;;5051140;28;19928;-61
2022/01/27 01:56:20;;;;;;;;;;;12.00;95.80;;;;;;5051000;28;20406;-60
2022/01/27 01:58:46;;;;;;;;;;;12.30;95.90;;;;;;5051080;28;19931;-61
2022/01/27 02:01:12;;;;;;;;;;;11.90;95.80;;;;;;5053312;28;19925;-62
2022/01/27 02:03:37;;;;;;;;;;;12.20;95.90;;;;;;5052266;28;19925;-60
2022/01/27 02:06:03;;;;;;;;;;;12.20;95.90;;;;;;5053624;28;19936;-61
2022/01/27 02:08:38;;;;;;;;;;;11.90;95.80;;;;;;5051028;28;19925;-60
2022/01/27 02:19:15;;;;;;;;;;;;;;;;;;5117439;28;19923;-60
2022/01/27 02:21:48;;;;;;;;;;;12.20;95.90;;;;;;5116816;28;19924;-61
2022/01/27 02:24:14;;;;;;;;;;;12.00;95.80;;;;;;5117428;28;20124;-61
2022/01/27 02:26:40;;;;;;;;;;;12.30;95.90;;;;;;5117303;28;19923;-61
2022/01/27 02:29:05;;;;;;;;;;;12.00;95.80;;;;;;5117299;28;19992;-61
2022/01/27 02:31:31;;;;;;;;;;;12.10;95.90;;;;;;5116750;28;19949;-61
2022/01/27 02:33:57;;;;;;;;;;;11.80;95.80;;;;;;5116481;28;19976;-61
2022/01/27 02:36:23;;;;;;;;;;;12.00;95.80;;;;;;5117541;28;19963;-61
2022/01/27 02:38:48;;;;;;;;;;;11.90;95.80;;;;;;5113961;28;19931;-61
2022/01/27 02:41:14;;;;;;;;;;;;;;;;;;5106580;28;19947;-61
2022/01/27 02:43:40;;;;;;;;;;;12.10;95.80;;;;;;5116008;28;19927;-60
2022/01/27 02:46:08;;;;;;;;;;;12.00;95.80;;;;;;5116969;28;20361;-60
2022/01/27 02:48:34;;;;;;;;;;;11.90;95.80;;;;;;5116900;28;19931;-60
2022/01/27 02:50:59;;;;;;;;;;;12.10;95.80;;;;;;5116844;28;20369;-61
2022/01/27 02:53:25;;;;;;;;;;;11.90;95.80;;;;;;5098099;28;19924;-61
2022/01/27 02:55:50;;;;;;;;;;;11.90;95.80;;;;;;5116237;28;20015;-61
2022/01/27 02:58:16;;;;;;;;;;;12.10;95.80;;;;;;5116713;28;20011;-60
2022/01/27 03:00:42;;;;;;;;;;;12.00;95.80;;;;;;5116723;28;19923;-61
2022/01/27 03:03:08;;;;;;;;;;;11.90;95.70;;;;;;5116527;28;19976;-60
2022/01/27 03:05:33;;;;;;;;;;;11.80;95.70;;;;;;5115846;28;19924;-61
2022/01/27 03:08:00;;;;;;;;;;;12.00;95.80;;;;;;5116212;28;19919;-61
2022/01/27 03:10:27;;;;;;;;;;;12.00;95.80;;;;;;5098417;28;19924;-62
2022/01/27 03:12:58;;;;;;;;;;;12.00;95.80;;;;;;5116323;28;20014;-61
2022/01/27 03:15:24;;;;;;;;;;;12.10;95.70;;;;;;5115606;28;19934;-62
2022/01/27 03:17:50;;;;;;;;;;;11.80;95.70;;;;;;5116270;28;20010;-62
2022/01/27 03:20:15;;;;;;;;;;;11.90;95.70;;;;;;5116262;28;19924;-61
2022/01/27 03:22:41;;;;;;;;;;;12.00;95.70;;;;;;5115780;28;19976;-60
2022/01/27 03:25:06;;;;;;;;;;;12.10;95.70;;;;;;5116204;28;19924;-60
2022/01/27 03:27:33;;;;;;;;;;;11.90;95.70;;;;;;5113966;28;20313;-62
2022/01/27 03:29:59;;;;;;;;;;;12.10;95.70;;;;;;5115920;28;19924;-63
2022/01/27 03:32:26;;;;;;;;;;;11.90;95.70;;;;;;5115642;28;19924;-63
2022/01/27 03:34:51;;;;;;;;;;;12.00;95.70;;;;;;5098061;28;19924;-61
2022/01/27 03:37:17;;;;;;;;;;;12.00;95.80;;;;;;5115441;28;20292;-62
2022/01/27 03:39:43;;;;;;;;;;;12.00;95.80;;;;;;5115896;28;20022;-61
2022/01/27 03:42:09;;;;;;;;;;;12.20;95.80;;;;;;5115460;28;19924;-61
2022/01/27 03:44:34;;;;;;;;;;;;;;;;;;5115341;28;19932;-62
2022/01/27 03:47:00;;;;;;;;;;;12.20;95.80;;;;;;5115121;28;20064;-61
2022/01/27 03:49:26;;;;;;;;;;;12.00;95.80;;;;;;5115395;28;20288;-61
2022/01/27 03:51:52;;;;;;;;;;;11.90;95.80;;;;;;5116241;28;19930;-62
2022/01/27 04:04:37;;;;;;;;;;;12.00;95.80;;;;;;5095172;28;19927;-61
2022/01/27 04:07:03;;;;;;;;;;;12.10;95.80;;;;;;5094994;28;19951;-61
2022/01/27 04:09:29;;;;;;;;;;;11.90;95.70;;;;;;5095564;28;19931;-61
2022/01/27 04:11:55;;;;;;;;;;;12.20;95.80;;;;;;5114886;28;19924;-61
2022/01/27 04:14:20;;;;;;;;;;;12.20;95.80;;;;;;5114803;28;19931;-60
2022/01/27 04:16:46;;;;;;;;;;;11.80;95.70;;;;;;5115217;28;19977;-61
2022/01/27 04:19:12;;;;;;;;;;;12.00;95.80;;;;;;5114993;28;20366;-61
2022/01/27 04:21:37;;;;;;;;;;;12.10;95.80;;;;;;5114315;28;19931;-60
2022/01/27 04:24:04;;;;;;;;;;;12.10;95.80;;;;;;5115325;28;19923;-60
2022/01/27 04:26:39;;;;;;;;;;;11.70;95.70;;;;;;5114995;28;20324;-60
2022/01/27 04:29:05;;;;;;;;;;;12.00;95.80;;;;;;5114696;28;19934;-61
2022/01/27 04:31:31;;;;;;;;;;;12.00;95.80;;;;;;5114224;28;19947;-62
2022/01/27 04:33:57;;;;;;;;;;;12.10;95.80;;;;;;5114414;28;20380;-60
2022/01/27 04:36:29;;;;;;;;;;;12.10;95.80;;;;;;5114640;28;19920;-62
2022/01/27 04:41:57;;;;;;;;;;;11.90;95.70;;;;;;5035476;28;19925;-60
2022/01/27 04:44:33;;;;;;;;;;;11.90;95.70;;;;;;5051828;28;19925;-60
2022/01/27 04:47:11;;;;;;;;;;;11.90;95.80;;;;;;5051937;28;20011;-60
2022/01/27 04:49:36;;;;;;;;;;;12.10;95.80;;;;;;5051782;28;20379;-63
2022/01/27 04:52:02;;;;;;;;;;;12.10;95.80;;;;;;5049831;28;19952;-61
2022/01/27 04:54:35;;;;;;;;;;;12.20;95.80;;;;;;5050896;28;19932;-60
2022/01/27 04:57:03;;;;;;;;;;;11.90;95.80;;;;;;5034838;28;19932;-61
2022/01/27 04:59:34;;;;;;;;;;;11.80;95.70;;;;;;5051788;28;19925;-62
2022/01/27 05:02:05;;;;;;;;;;;12.00;95.80;;;;;;5051580;28;19924;-62
2022/01/27 05:04:34;;;;;;;;;;;12.00;95.80;;;;;;5035167;28;19949;-61
2022/01/27 05:07:00;;;;;;;;;;;12.20;95.80;;;;;;5031914;28;19960;-62
2022/01/27 05:09:25;;;;;;;;;;;12.00;95.80;;;;;;5031658;28;20354;-60
2022/01/27 05:11:57;;;;;;;;;;;12.00;95.80;;;;;;5032235;28;19925;-61
2022/01/27 05:14:24;;;;;;;;;;;11.90;95.80;;;;;;5040332;28;19928;-61
2022/01/27 05:16:50;;;;;;;;;;;12.00;95.80;;;;;;5051531;28;19929;-62
2022/01/27 05:19:16;;;;;;;;;;;12.40;95.90;;;;;;5082777;28;19924;-60
2022/01/27 05:21:42;;;;;;;;;;;12.00;95.80;;;;;;5094038;28;19947;-60
2022/01/27 05:24:07;;;;;;;;;;;11.90;95.80;;;;;;5096494;28;19946;-60
2022/01/27 05:26:36;;;;;;;;;;;12.20;95.90;;;;;;5114279;28;19924;-61
2022/01/27 05:29:05;;;;;;;;;;;11.90;95.90;;;;;;5114256;28;19924;-60
2022/01/27 05:31:30;;;;;;;;;;;12.00;95.90;;;;;;5113825;28;20361;-60
2022/01/27 05:33:56;;;;;;;;;;;11.90;95.90;;;;;;5113942;28;19931;-61
2022/01/27 05:36:22;;;;;;;;;;;12.10;96.00;;;;;;5106926;28;19931;-62
2022/01/27 05:38:47;;;;;;;;;;;12.20;96.00;;;;;;5093626;28;19924;-60
2022/01/27 05:41:14;;;;;;;;;;;12.00;96.00;;;;;;5093555;28;19977;-63
2022/01/27 05:43:40;;;;;;;;;;;;;;;;;;5095159;28;19982;-61
2022/01/27 05:46:06;;;;;;;;;;;;;;;;;;5087030;28;19924;-60
2022/01/27 05:48:32;;;;;;;;;;;12.10;96.00;;;;;;5117799;28;19932;-60
2022/01/27 05:50:58;;;;;;;;;;;11.90;96.00;;;;;;5118047;28;20006;-60
2022/01/27 05:53:24;;;;;;;;;;;12.10;96.10;;;;;;5118309;28;19985;-60
2022/01/27 05:55:49;;;;;;;;;;;12.10;96.10;;;;;;5117618;28;19928;-60
2022/01/27 05:58:15;;;;;;;;;;;12.00;96.00;;;;;;5117623;28;20376;-59
2022/01/27 06:00:41;;;;;;;;;;;11.90;96.00;;;;;;5117299;28;20010;-60
2022/01/27 06:03:06;;;;;;;;;;;12.10;96.10;;;;;;5097355;28;20342;-60
2022/01/27 06:05:33;;;;;;;;;;;12.10;96.10;;;;;;5097361;28;19962;-60
2022/01/27 06:07:59;;;;;;;;;;;12.00;96.10;;;;;;5097016;28;19931;-60
2022/01/27 06:10:24;;;;;;;;;;;11.90;96.10;;;;;;5103659;28;19924;-59
2022/01/27 06:12:56;;;;;;;;;;;12.00;96.10;;;;;;5099494;28;19924;-60
2022/01/27 06:15:22;;;;;;;;;;;12.10;96.20;;;;;;5117466;28;19923;-60
2022/01/27 06:17:48;;;;;;;;;;;11.90;96.20;;;;;;5117384;28;19924;-59
2022/01/27 06:20:14;;;;;;;;;;;12.10;96.20;;;;;;5099361;28;19977;-59
2022/01/27 06:22:40;;;;;;;;;;;12.00;96.20;;;;;;5116654;28;19928;-59
2022/01/27 06:25:06;;;;;;;;;;;12.00;96.20;;;;;;5098943;28;19924;-60
2022/01/27 06:27:32;;;;;;;;;;;12.10;96.30;;;;;;5117333;28;20308;-59
2022/01/27 06:29:57;;;;;;;;;;;12.00;96.30;;;;;;5117298;28;19924;-59
2022/01/27 06:32:23;;;;;;;;;;;;;;;;;;5116229;28;20162;-59
2022/01/27 06:34:49;;;;;;;;;;;11.90;96.20;;;;;;5117070;28;19974;-59
2022/01/27 06:37:15;;;;;;;;;;;12.00;96.30;;;;;;5117146;28;20338;-59
2022/01/27 06:39:40;;;;;;;;;;;11.80;96.30;;;;;;5117646;28;19946;-59
2022/01/27 06:42:07;;;;;;;;;;;11.90;96.30;;;;;;5116522;28;19919;-60
2022/01/27 06:44:33;;;;;;;;;;;12.00;96.40;;;;;;5116893;28;20380;-59
2022/01/27 06:46:59;;;;;;;;;;;12.00;96.30;;;;;;5116987;28;19924;-59
2022/01/27 06:49:25;;;;;;;;;;;;;;;;;;5116882;28;20334;-59
2022/01/27 06:51:51;;;;;;;;;;;11.90;96.30;;;;;;5116418;28;19924;-59
2022/01/27 06:54:17;;;;;;;;;;;12.10;96.40;;;;;;5116382;28;19969;-59
2022/01/27 06:56:43;;;;;;;;;;;11.90;96.30;;;;;;5116664;28;19969;-60
2022/01/27 06:59:08;;;;;;;;;;;12.10;96.40;;;;;;5116731;28;19924;-60
2022/01/27 07:01:34;;;;;;;;;;;12.20;96.40;;;;;;5116361;28;19928;-60
2022/01/27 07:04:01;;;;;;;;;;;12.30;96.50;;;;;;5116061;28;19930;-59
2022/01/27 07:06:27;;;;;;;;;;;11.90;96.40;;;;;;5116640;28;20369;-59
2022/01/27 07:08:52;;;;;;;;;;;12.00;96.40;;;;;;5116011;28;19934;-64
2022/01/27 07:11:18;;;;;;;;;;;;;;;;;;5097895;28;19957;-63
2022/01/27 07:13:44;;;;;;;;;;;12.10;96.50;;;;;;5115045;28;19934;-59
2022/01/27 07:16:10;;;;;;;;;;;12.00;96.40;;;;;;5115416;28;20292;-64
2022/01/27 07:18:36;;;;;;;;;;;12.10;96.50;;;;;;5106717;28;19924;-64
2022/01/27 07:21:02;;;;;;;;;;;;;;;;;;5115752;28;19931;-65
2022/01/27 07:23:28;;;;;;;;;;;12.20;96.50;;;;;;5115513;28;20289;-59
2022/01/27 07:25:53;;;;;;;;;;;12.20;96.50;;;;;;5091585;28;19931;-65
2022/01/27 07:28:19;;;;;;;;;;;;;;;;;;5115248;28;19967;-65
2022/01/27 07:30:45;;;;;;;;;;;;;;;;;;5114305;28;19931;-65
2022/01/27 07:33:11;;;;;;;;;;;12.10;96.60;;;;;;5104427;28;19924;-65
2022/01/27 07:35:37;;;;;;;;;;;12.00;96.50;;;;;;5113295;28;19924;-65
2022/01/27 07:38:04;;;;;;;;;;;12.10;96.60;;;;;;5115686;28;19982;-66
2022/01/27 07:40:30;;;;;;;;;;;12.40;96.60;;;;;;5112442;28;19977;-65
2022/01/27 07:42:55;;;;;;;;;;;12.00;96.50;;;;;;5100028;28;20372;-65
2022/01/27 07:45:21;;;;;;;;;;;12.10;96.60;;;;;;5111986;28;20014;-66
2022/01/27 07:47:46;;;;;;;;;;;12.20;96.60;;;;;;5110997;28;19924;-65
2022/01/27 07:50:12;;;;;;;;;;;12.10;96.60;;;;;;5106372;28;19947;-66
2022/01/27 07:52:38;;;;;;;;;;;12.00;96.60;;;;;;5111913;28;19931;-60
2022/01/27 07:55:04;;;;;;;;;;;12.20;96.60;;;;;;5115659;28;19996;-60
2022/01/27 07:57:29;;;;;;;;;;;11.90;96.50;;;;;;5115023;28;19924;-60
2022/01/27 07:59:55;;;;;;;;;;;12.00;96.50;;;;;;5114699;28;19950;-60
2022/01/27 08:02:20;;;;;;;;;;;12.30;96.60;;;;;;5114672;28;19932;-60
2022/01/27 08:04:46;;;;;;;;;;;12.10;96.60;;;;;;5103190;28;19924;-60
2022/01/27 08:07:12;;;;;;;;;;;12.10;96.60;;;;;;5115402;28;19930;-59
2022/01/27 08:09:38;;;;;;;;;;;12.30;96.60;;;;;;5112081;28;19930;-59
2022/01/27 08:12:04;;;;;;;;;;;12.20;96.60;;;;;;5112446;28;20018;-59
2022/01/27 08:14:29;;;;;;;;;;;12.00;96.60;;;;;;5106043;28;19929;-60
2022/01/27 08:16:55;;;;;;;;;;;12.40;96.70;;;;;;5110187;28;20273;-65
2022/01/27 08:19:21;;;;;;;;;;;12.40;96.70;;;;;;5112076;28;20285;-66
2022/01/27 08:21:46;;;;;;;;;;;12.40;96.70;;;;;;5112121;28;20292;-66
2022/01/27 08:24:14;;;;;;;;;;;12.00;96.60;;;;;;5095808;28;19932;-66
2022/01/27 08:26:43;;;;;;;;;;;12.30;96.70;;;;;;5114379;28;19923;-66
2022/01/27 08:29:56;;;;;;;;;;;12.20;96.70;;;;;;5114245;28;20300;-66
2022/01/27 08:32:02;;;;;;;;;;;12.50;96.80;;;;;;5102513;28;20350;-65
2022/01/27 08:34:31;;;;;;;;;;;12.30;96.70;;;;;;5108628;28;19993;-66
2022/01/27 08:36:57;;;;;;;;;;;12.20;96.70;;;;;;5113980;28;19977;-60
2022/01/27 08:39:23;;;;;;;;;;;12.10;96.70;;;;;;5113927;28;20377;-59
2022/01/27 08:41:49;;;;;;;;;;;12.20;96.70;;;;;;5106048;28;19931;-60
2022/01/27 08:44:14;;;;;;;;;;;12.20;96.60;;;;;;5114122;28;20361;-60
2022/01/27 08:46:40;;;;;;;;;;;12.30;96.70;;;;;;5113997;28;19959;-66
2022/01/27 08:49:06;;;;;;;;;;;;;;;;;;5108000;28;19932;-66
2022/01/27 08:51:32;;;;;;;;;;;12.30;96.60;;;;;;5103195;28;20437;-66
2022/01/27 08:53:58;;;;;;;;;;;;;;;;;;5114674;28;20006;-66
2022/01/27 08:56:24;;;;;;;;;;;;;;;;;;5099814;28;19928;-66
2022/01/27 08:58:50;;;;;;;;;;;12.10;96.70;;;;;;5094270;28;19927;-66
2022/01/27 09:01:15;;;;;;;;;;;12.30;96.70;;;;;;5097797;28;19924;-65
2022/01/27 09:03:41;;;;;;;;;;;12.10;96.60;;;;;;5113915;28;19924;-65
2022/01/27 09:06:07;;;;;;;;;;;12.40;96.60;;;;;;5111164;28;19946;-65
2022/01/27 09:08:33;;;;;;;;;;;;;;;;;;5106633;28;19920;-65
2022/01/27 09:10:59;;;;;;;;;;;12.60;96.70;;;;;;5113821;28;19924;-67
2022/01/27 09:13:25;;;;;;;;;;;;;;;;;;5113831;28;19973;-66
2022/01/27 09:15:50;;;;;;;;;;;12.40;96.60;;;;;;5113511;28;20442;-66
2022/01/27 09:18:16;;;;;;;;;;;12.30;96.50;;;;;;5112952;28;20019;-65
2022/01/27 09:20:43;;;;;;;;;;;12.20;96.50;;;;;;5114938;28;20070;-66
2022/01/27 09:23:13;;;;;;;;;;;12.30;96.50;;;;;;5117212;28;19924;-66
2022/01/27 09:25:43;;;;;;;;;;;12.30;96.50;;;;;;5117959;28;20022;-66
2022/01/27 09:28:09;;;;;;;;;;;12.60;96.50;;;;;;5117163;28;19924;-65
2022/01/27 09:30:35;;;;;;;;;;;12.50;96.60;;;;;;5118020;28;20343;-66
2022/01/27 09:33:00;;;;;;;;;;;12.10;96.40;;;;;;5116457;28;20003;-66
2022/01/27 09:35:28;;;;;;;;;;;12.30;96.40;;;;;;5117906;28;20000;-66
2022/01/27 09:37:55;;;;;;;;;;;;;;;;;;5117259;28;19953;-62
2022/01/27 09:40:20;;;;;;;;;;;12.40;96.50;;;;;;5117188;28;19931;-66
2022/01/27 09:42:50;;;;;;;;;;;12.60;96.40;;;;;;5115803;28;19927;-65
2022/01/27 09:45:16;;;;;;;;;;;12.30;96.40;;;;;;5079345;28;19924;-66
2022/01/27 09:47:43;;;;;;;;;;;12.40;96.40;;;;;;5097774;28;19924;-66
2022/01/27 09:50:22;;;;;;;;;;;12.30;96.40;;;;;;5079700;28;19931;-65
2022/01/27 09:52:48;;;;;;;;;;;12.70;96.50;;;;;;5097501;28;19978;-66
2022/01/27 09:55:14;;;;;;;;;;;12.50;96.50;;;;;;5098466;28;19923;-66
2022/01/27 09:57:40;;;;;;;;;;;12.60;96.50;;;;;;5116984;28;19975;-65
2022/01/27 10:00:06;;;;;;;;;;;12.50;96.40;;;;;;5117427;28;19924;-66
2022/01/27 10:02:32;;;;;;;;;;;12.60;96.50;;;;;;5100376;28;20015;-66
2022/01/27 10:04:57;;;;;;;;;;;12.80;96.50;;;;;;5109778;28;20361;-66
2022/01/27 10:07:27;;;;;;;;;;;12.80;96.50;;;;;;5117445;28;19935;-66
2022/01/27 10:09:57;;;;;;;;;;;12.60;96.50;;;;;;5104640;28;19924;-67
2022/01/27 10:12:23;;;;;;;;;;;12.60;96.50;;;;;;5097261;28;19920;-65
2022/01/27 10:14:55;;;;;;;;;;;12.60;96.50;;;;;;5107426;28;19924;-66
2022/01/27 10:17:21;;;;;;;;;;;12.30;96.40;;;;;;5117186;28;19931;-67
2022/01/27 10:19:52;;;;;;;;;;;12.60;96.40;;;;;;5117240;28;20284;-66
2022/01/27 10:22:17;;;;;;;;;;;12.60;96.40;;;;;;5116772;28;19927;-66
2022/01/27 10:24:44;;;;;;;;;;;12.60;96.40;;;;;;5116690;28;19935;-66
2022/01/27 10:27:16;;;;;;;;;;;;;;;;;;5108847;28;19968;-66
2022/01/27 10:30:00;;;;;;;;;;;;;;;;;;5116490;28;19924;-66
2022/01/27 10:32:42;;;;;;;;;;;12.90;96.50;;;;;;5115818;28;19924;-66
2022/01/27 10:35:09;;;;;;;;;;;12.90;96.10;;;;;;5111368;28;19923;-66
2022/01/27 10:37:53;;;;;;;;;;;12.50;96.40;;;;;;5109328;28;19924;-66
2022/01/27 10:40:31;;;;;;;;;;;12.70;96.40;;;;;;5096688;28;19924;-66
2022/01/27 10:43:03;;;;;;;;;;;12.80;96.40;;;;;;5108261;28;19931;-63
2022/01/27 10:45:28;;;;;;;;;;;12.70;96.40;;;;;;5114747;28;19924;-62
2022/01/27 10:48:05;;;;;;;;;;;12.60;96.40;;;;;;5114153;28;20011;-65
2022/01/27 10:50:31;;;;;;;;;;;12.80;96.50;;;;;;5108190;28;19924;-66
2022/01/27 10:53:03;;;;;;;;;;;12.60;96.40;;;;;;5114097;28;20453;-65
2022/01/27 10:55:29;;;;;;;;;;;12.80;96.50;;;;;;5115698;28;19994;-65
2022/01/27 10:57:54;;;;;;;;;;;12.80;96.50;;;;;;5114465;28;19930;-65
2022/01/27 11:00:20;;;;;;;;;;;;;;;;;;5097368;28;19931;-64
2022/01/27 11:02:53;;;;;;;;;;;13.00;96.50;;;;;;5113340;28;19936;-66
2022/01/27 11:05:19;;;;;;;;;;;12.90;96.50;;;;;;5114067;28;19963;-65
2022/01/27 11:07:45;;;;;;;;;;;13.00;96.50;;;;;;5105274;28;20377;-64
2022/01/27 11:10:11;;;;;;;;;;;;;;;;;;5115041;28;19930;-65
2022/01/27 11:12:37;;;;;;;;;;;12.60;96.40;;;;;;5115000;28;19963;-61
2022/01/27 11:15:03;;;;;;;;;;;12.80;96.50;;;;;;5097139;28;20016;-65
2022/01/27 11:17:33;;;;;;;;;;;13.10;96.50;;;;;;5114944;28;19988;-60
2022/01/27 11:22:58;;;;;;;;;;;13.10;96.50;;;;;;5092795;28;20466;-64
2022/01/27 11:27:50;;;;;;;;;;;12.90;96.50;;;;;;5096301;28;19920;-64
2022/01/27 11:30:18;;;;;;;;;;;13.10;96.60;;;;;;5094884;28;20330;-64
2022/01/27 11:32:59;;;;;;;;;;;12.90;96.50;;;;;;5027535;28;1893637;-66
2022/01/27 11:35:26;;;;;;;;;;;13.20;96.60;;;;;;5095688;28;19967;-60
2022/01/27 11:37:55;;;;;;;;;;;13.30;96.20;;;;;;5103688;28;19931;-60
2022/01/27 11:40:21;;;;;;;;;;;12.90;96.50;;;;;;5115649;28;20369;-60
2022/01/27 11:42:56;;;;;;;;;;;13.00;96.50;;;;;;5114793;28;20022;-61
2022/01/27 11:45:24;;;;;;;;;;;12.70;96.40;;;;;;5115218;28;19970;-60
2022/01/27 11:47:54;;;;;;;;;;;13.00;96.50;;;;;;5115503;28;20265;-61
2022/01/27 11:50:32;;;;;;;;;;;13.10;96.50;;;;;;5114571;28;19923;-61
2022/01/27 11:52:58;;;;;;;;;;;;;;;;;;5114495;28;19924;-66
2022/01/27 11:55:24;;;;;;;;;;;12.90;96.40;;;;;;5114734;28;20392;-66
2022/01/27 11:57:50;;;;;;;;;;;;;;;;;;5106019;28;19924;-66
2022/01/27 12:00:16;;;;;;;;;;;13.10;96.50;;;;;;5092196;28;20327;-66
2022/01/27 12:03:00;;;;;;;;;;;13.10;96.50;;;;;;5097237;28;19924;-65
2022/01/27 12:05:39;;;;;;;;;;;12.90;96.50;;;;;;5115493;28;20325;-63
2022/01/27 12:08:18;;;;;;;;;;;13.10;96.60;;;;;;5114608;28;19970;-66
2022/01/27 12:10:49;;;;;;;;;;;13.20;96.60;;;;;;5114386;28;19950;-66
2022/01/27 12:18:59;;;;;;;;;;;13.10;96.60;;;;;;5103520;28;19928;-60
2022/01/27 12:21:28;;;;;;;;;;;12.80;96.60;;;;;;5095931;28;19924;-67
2022/01/27 12:24:12;;;;;;;;;;;12.90;96.60;;;;;;5113468;28;20393;-66
2022/01/27 12:26:45;;;;;;;;;;;13.20;96.70;;;;;;5114097;28;19949;-64
2022/01/27 12:29:11;;;;;;;;;;;12.70;96.50;;;;;;5113880;28;19977;-65
2022/01/27 12:31:39;;;;;;;;;;;13.10;96.70;;;;;;5106270;28;20293;-66
2022/01/27 12:34:05;;;;;;;;;;;13.10;96.80;;;;;;5094567;28;20022;-66
2022/01/27 12:36:31;;;;;;;;;;;13.10;96.80;;;;;;5094515;28;19969;-66
2022/01/27 12:38:56;;;;;;;;;;;13.00;96.70;;;;;;5094457;28;19999;-60
2022/01/27 12:41:22;;;;;;;;;;;;;;;;;;5094774;28;19924;-62
2022/01/27 12:43:48;;;;;;;;;;;;;;;;;;5114526;28;19924;-61
2022/01/27 12:46:14;;;;;;;;;;;13.10;96.80;;;;;;5096697;28;20022;-61
2022/01/27 12:48:42;;;;;;;;;;;;;;;;;;5114296;28;19991;-63
2022/01/27 12:51:08;;;;;;;;;;;13.10;96.90;;;;;;5114389;28;19931;-61
2022/01/27 12:53:35;;;;;;;;;;;13.00;96.90;;;;;;5113941;28;19923;-61
2022/01/27 12:56:05;;;;;;;;;;;12.80;96.90;;;;;;5096172;28;20392;-61
2022/01/27 12:58:32;;;;;;;;;;;13.00;96.90;;;;;;5114655;28;20262;-64
2022/01/27 13:00:58;;;;;;;;;;;13.00;96.90;;;;;;5114562;28;19930;-60
2022/01/27 13:03:24;;;;;;;;;;;13.00;97.00;;;;;;5114488;28;20429;-60
2022/01/27 13:05:53;;;;;;;;;;;13.10;97.00;;;;;;5113980;28;19930;-60
2022/01/27 13:08:28;;;;;;;;;;;13.10;97.00;;;;;;5115072;28;20002;-60
2022/01/27 13:10:56;;;;;;;;;;;13.20;97.00;;;;;;5114238;28;19923;-60
2022/01/27 13:13:26;;;;;;;;;;;13.20;97.00;;;;;;5113503;28;19931;-66
2022/01/27 13:16:03;;;;;;;;;;;13.10;97.00;;;;;;5114414;28;19924;-67
2022/01/27 13:18:58;;;;;;;;;;;13.30;97.00;;;;;;5113873;28;20347;-66
2022/01/27 13:21:19;;;;;;;;;;;13.40;97.10;;;;;;5113717;28;19969;-66
2022/01/27 13:23:47;;;;;;;;;;;13.10;97.00;;;;;;5112872;28;20288;-66
2022/01/27 13:26:16;;;;;;;;;;;13.10;97.00;;;;;;5113916;28;19993;-66
2022/01/27 13:28:43;;;;;;;;;;;13.00;97.00;;;;;;5114003;28;20377;-66
2022/01/27 13:31:11;;;;;;;;;;;13.30;97.10;;;;;;5114315;28;19993;-60
2022/01/27 13:33:40;;;;;;;;;;;13.10;97.00;;;;;;5113802;28;19931;-61
2022/01/27 13:36:08;;;;;;;;;;;13.00;96.90;;;;;;5113322;28;19978;-61
2022/01/27 13:38:49;;;;;;;;;;;13.40;97.10;;;;;;5112081;28;19966;-66
2022/01/27 13:41:22;;;;;;;;;;;13.40;97.10;;;;;;5113539;28;19923;-66
2022/01/27 13:43:48;;;;;;;;;;;;;;;;;;5113587;28;19931;-67
2022/01/27 13:46:34;;;;;;;;;;;13.40;97.10;;;;;;5113783;28;19934;-66
2022/01/27 13:49:00;;;;;;;;;;;;;;;;;;5111347;28;19993;-66
2022/01/27 13:51:25;;;;;;;;;;;13.20;97.10;;;;;;5113786;28;19963;-67
2022/01/27 13:54:17;;;;;;;;;;;13.00;97.10;;;;;;5113535;28;19928;-67
2022/01/27 13:56:47;;;;;;;;;;;13.10;97.10;;;;;;5109470;28;19934;-67
2022/01/27 13:59:18;;;;;;;;;;;13.10;97.10;;;;;;5113654;28;20293;-66
2022/01/27 14:01:45;;;;;;;;;;;13.10;97.10;;;;;;5114049;28;19924;-67
2022/01/27 14:04:10;;;;;;;;;;;13.20;97.20;;;;;;5113922;28;20284;-67
2022/01/27 14:06:49;;;;;;;;;;;13.30;97.20;;;;;;5115052;28;19930;-61
2022/01/27 14:09:18;;;;;;;;;;;13.10;97.20;;;;;;5117018;28;20541;-61
2022/01/27 14:11:44;;;;;;;;;;;;;;;;;;5117286;28;20011;-62
2022/01/27 14:14:10;;;;;;;;;;;13.30;97.30;;;;;;5116962;28;20274;-61
2022/01/27 14:16:37;;;;;;;;;;;13.10;97.30;;;;;;5117618;28;20347;-61
2022/01/27 14:19:12;;;;;;;;;;;13.10;97.30;;;;;;5117577;28;19931;-61
2022/01/27 14:21:45;;;;;;;;;;;13.40;97.40;;;;;;5117508;28;20026;-61
2022/01/27 14:24:13;;;;;;;;;;;13.10;97.20;;;;;;5112464;28;20377;-61
2022/01/27 14:26:41;;;;;;;;;;;13.20;97.30;;;;;;5103442;28;20297;-61
2022/01/27 14:29:13;;;;;;;;;;;13.20;97.30;;;;;;5113040;28;20385;-60
2022/01/27 14:31:40;;;;;;;;;;;13.30;97.30;;;;;;5117177;28;20047;-60
2022/01/27 14:34:06;;;;;;;;;;;13.00;97.30;;;;;;5076623;28;19967;-59
2022/01/27 14:36:33;;;;;;;;;;;13.30;97.40;;;;;;5096599;28;19950;-60
2022/01/27 14:38:59;;;;;;;;;;;13.10;97.40;;;;;;5078409;28;19930;-60
2022/01/27 14:41:24;;;;;;;;;;;13.30;97.40;;;;;;5092460;28;19932;-62
2022/01/27 14:43:50;;;;;;;;;;;13.20;97.40;;;;;;5096228;28;19924;-60
2022/01/27 14:46:21;;;;;;;;;;;13.40;97.50;;;;;;5096584;28;20011;-60
2022/01/27 14:48:53;;;;;;;;;;;13.20;97.40;;;;;;5096486;28;19927;-61
2022/01/27 14:51:20;;;;;;;;;;;13.00;97.40;;;;;;5096558;28;19934;-60
2022/01/27 14:53:46;;;;;;;;;;;13.30;97.50;;;;;;5096594;28;19931;-60
2022/01/27 14:56:12;;;;;;;;;;;13.20;97.50;;;;;;5095969;28;20007;-66
2022/01/27 14:58:38;;;;;;;;;;;13.30;97.50;;;;;;5096462;28;19970;-67
2022/01/27 15:01:03;;;;;;;;;;;13.10;97.50;;;;;;5096420;28;20417;-66
2022/01/27 15:03:29;;;;;;;;;;;13.10;97.50;;;;;;5091831;28;19974;-66
2022/01/27 15:05:55;;;;;;;;;;;13.10;97.50;;;;;;5092493;28;20388;-66
2022/01/27 15:08:20;;;;;;;;;;;13.00;97.50;;;;;;5095702;28;20058;-66
2022/01/27 15:10:46;;;;;;;;;;;13.30;97.60;;;;;;5095835;28;19924;-66
2022/01/27 15:13:12;;;;;;;;;;;13.10;97.60;;;;;;5095685;28;20427;-66
2022/01/27 15:21:07;;;;;;;;;;;13.10;97.60;;;;;;5095441;28;20054;-66
2022/01/27 15:23:35;;;;;;;;;;;13.10;97.70;;;;;;5095774;28;20017;-66
2022/01/27 15:26:04;;;;;;;;;;;13.30;97.50;;;;;;5091266;28;19928;-61
2022/01/27 15:28:30;;;;;;;;;;;13.00;97.60;;;;;;5092374;28;19920;-60
2022/01/27 15:30:57;;;;;;;;;;;13.10;97.60;;;;;;5095594;28;19925;-61
2022/01/27 15:33:23;;;;;;;;;;;13.10;97.70;;;;;;5093614;28;19928;-62
2022/01/27 15:35:49;;;;;;;;;;;13.10;97.70;;;;;;5095652;28;20391;-64
2022/01/27 15:38:15;;;;;;;;;;;13.00;97.70;;;;;;5102973;28;19978;-63